Depew, OK (74028)

7:57 AM CDT on April 21, 2015 (GMT -0500)
Persimmon Place (2 1/2 Mile Rd) | | Change Station
CLOSE
Current Station
Personal Weather Station
Location: Bristow, OK
Elevation: 830 ft
Nearby Weather Stations

Elev 830 ft 35.79 °N, 96.38 °W | Updated 4 minutes ago

Rain
Rain
47.7 °F
Feels Like 48 °F
N
2.2
Wind Variable Wind from SSW

Today
High -- | Low -- °F
--% Chance of Precip.
Yesterday
High -- | Low -- °F
Precip. -- in
6:45 AM 8:04 PM
Waxing Crescent, 10% visible
Pressure 29.99 in
Visibility 10.0 miles
Clouds Mostly Cloudy 700 ft
Mostly Cloudy 1300 ft
Overcast 7500 ft
Windchill 48 °F
Dew Point 45 °F
Humidity 90%
Rainfall 0.07 in
Snow Depth Not available.
UV 0 out of 12
Pollen 8.40 out of 12
Air Quality Not available.
Flu Activity Regional
METAR KCUH 211235Z AUTO 21004KT 10SM -RA BKN007 BKN013 OVC075 10/08 A2999 RMK AO2

More Conditions Fewer Conditions

Pressure 29.99 in
Visibility 10.0 miles
Clouds Mostly Cloudy 700 ft
Mostly Cloudy 1300 ft
Overcast 7500 ft
Windchill 48 °F
Dew Point 45 °F
Humidity 90%
Rainfall 0.07 in
Snow Depth Not available.
UV 0 out of 12
Pollen 8.40 out of 12
Air Quality Not available.
Flu Activity Regional
METAR KCUH 211235Z AUTO 21004KT 10SM -RA BKN007 BKN013 OVC075 10/08 A2999 RMK AO2

More Conditions Fewer Conditions

Nowcast | as of 6:07 am CDT on April 21, 2015

At 6:07 am...Doppler radars indicated high based scattered showers moving across eastern Oklahoma. This activity was moving off to the east at around 35 mph. Through 8:30 am...passing light showers and occasional sprinkles will be possible for eastern Oklahoma and western Arkansas. Due to the high based nature of this activity...much of the precipitation will evaporate prior to reaching the ground. Any accumulating precipitation will average from a trace to a couple hundredths of an inch.

×

10-Day Weather Forecast

Almanac

Astronomy

Apr. 21, 2015 Rise Set
Actual Time
Civil Twilight
Nautical Twilight
Astronomical Twilight
Moon
Length of Visible Light
Length of Day
Tomorrow will be .
, % of the Moon is Illuminated

Today's Extremes

State Highs State Lows

Community

WunderPhotos

Upload Photos

1,815,361 photos uploaded!

WunderBlogs® & News

Nearby

Air Quality

  Air Quality AQ Index Pollutant
Not available.

Snow Depth

Station Depth Elevation

Earthquake Activity

City Distance Mag. Time & Date
Minimum magnitude displayed is 2.5.

Coastal Water Temperatures

Place Temperature

Stations

Nearby Weather Stations

Station Location Temp. Windchill Dew Point Humidity Wind Precip. Elev Updated Type